sensor_id;sensor_type;location;lat;lon;timestamp;pressure;altitude;pressure_sealevel;temperature;humidity
21828;BME280;11076;47.942;11.804;2023-07-16T00:03:36;94087.00;;;22.31;74.33
21828;BME280;11076;47.942;11.804;2023-07-16T00:08:38;94075.84;;;22.14;75.44
21828;BME280;11076;47.942;11.804;2023-07-16T00:13:41;94097.34;;;21.96;76.15
21828;BME280;11076;47.942;11.804;2023-07-16T00:18:48;94099.66;;;21.89;77.18
21828;BME280;11076;47.942;11.804;2023-07-16T00:23:50;94112.94;;;21.77;77.80
21828;BME280;11076;47.942;11.804;2023-07-16T00:28:53;94114.09;;;21.71;78.84
21828;BME280;11076;47.942;11.804;2023-07-16T00:33:55;94129.00;;;21.54;79.34
21828;BME280;11076;47.942;11.804;2023-07-16T00:38:58;94137.31;;;21.44;80.57
21828;BME280;11076;47.942;11.804;2023-07-16T00:44:00;94152.47;;;21.26;80.74
21828;BME280;11076;47.942;11.804;2023-07-16T00:49:03;94154.84;;;21.33;81.42
21828;BME280;11076;47.942;11.804;2023-07-16T00:54:05;94161.28;;;21.18;82.29
21828;BME280;11076;47.942;11.804;2023-07-16T00:59:08;94184.94;;;21.17;82.45
21828;BME280;11076;47.942;11.804;2023-07-16T01:04:11;94212.66;;;21.19;82.94
21828;BME280;11076;47.942;11.804;2023-07-16T01:09:18;94241.50;;;21.15;83.62
21828;BME280;11076;47.942;11.804;2023-07-16T01:14:21;94282.28;;;21.15;84.10
21828;BME280;11076;47.942;11.804;2023-07-16T01:19:25;94307.38;;;21.07;84.79
21828;BME280;11076;47.942;11.804;2023-07-16T01:24:44;94321.50;;;21.04;85.24
21828;BME280;11076;47.942;11.804;2023-07-16T01:29:58;94324.31;;;20.94;86.62
21828;BME280;11076;47.942;11.804;2023-07-16T01:35:05;94337.56;;;20.71;88.02
21828;BME280;11076;47.942;11.804;2023-07-16T01:40:08;94353.28;;;20.74;87.95
21828;BME280;11076;47.942;11.804;2023-07-16T01:45:11;94356.41;;;20.52;89.78
21828;BME280;11076;47.942;11.804;2023-07-16T01:50:13;94351.81;;;20.48;90.85
21828;BME280;11076;47.942;11.804;2023-07-16T01:55:16;94349.84;;;20.58;90.80
21828;BME280;11076;47.942;11.804;2023-07-16T02:00:19;94355.53;;;20.57;91.13
21828;BME280;11076;47.942;11.804;2023-07-16T02:05:22;94371.22;;;20.75;90.85
21828;BME280;11076;47.942;11.804;2023-07-16T02:10:24;94371.28;;;20.99;89.66
21828;BME280;11076;47.942;11.804;2023-07-16T02:15:27;94382.72;;;20.96;90.07
21828;BME280;11076;47.942;11.804;2023-07-16T02:20:30;94377.44;;;21.10;89.09
21828;BME280;11076;47.942;11.804;2023-07-16T02:25:32;94387.91;;;20.93;89.90
21828;BME280;11076;47.942;11.804;2023-07-16T02:30:35;94393.84;;;21.00;90.35
21828;BME280;11076;47.942;11.804;2023-07-16T02:35:38;94391.66;;;21.02;90.25
21828;BME280;11076;47.942;11.804;2023-07-16T02:40:47;94391.63;;;21.07;89.26
21828;BME280;11076;47.942;11.804;2023-07-16T02:45:50;94400.50;;;20.83;90.13
21828;BME280;11076;47.942;11.804;2023-07-16T02:50:52;94398.84;;;20.82;90.63
21828;BME280;11076;47.942;11.804;2023-07-16T02:55:55;94402.38;;;20.83;90.31
21828;BME280;11076;47.942;11.804;2023-07-16T03:00:57;94399.00;;;21.01;89.36
21828;BME280;11076;47.942;11.804;2023-07-16T03:06:00;94408.44;;;21.09;88.94
21828;BME280;11076;47.942;11.804;2023-07-16T03:11:02;94414.19;;;21.37;88.08
21828;BME280;11076;47.942;11.804;2023-07-16T03:16:06;94414.69;;;21.44;87.87
21828;BME280;11076;47.942;11.804;2023-07-16T03:21:08;94411.50;;;21.32;88.94
21828;BME280;11076;47.942;11.804;2023-07-16T03:26:11;94412.53;;;21.41;88.52
21828;BME280;11076;47.942;11.804;2023-07-16T03:31:14;94390.75;;;21.12;88.72
21828;BME280;11076;47.942;11.804;2023-07-16T03:36:18;94403.47;;;20.87;90.54
21828;BME280;11076;47.942;11.804;2023-07-16T03:41:21;94404.09;;;21.08;90.67
21828;BME280;11076;47.942;11.804;2023-07-16T03:46:23;94406.16;;;21.21;90.16
21828;BME280;11076;47.942;11.804;2023-07-16T03:51:26;94422.19;;;21.23;90.17
21828;BME280;11076;47.942;11.804;2023-07-16T03:56:29;94429.34;;;21.48;88.95
21828;BME280;11076;47.942;11.804;2023-07-16T04:01:31;94432.91;;;21.43;89.24
21828;BME280;11076;47.942;11.804;2023-07-16T04:06:34;94443.41;;;21.55;88.99
21828;BME280;11076;47.942;11.804;2023-07-16T04:11:36;94439.94;;;21.50;89.27
21828;BME280;11076;47.942;11.804;2023-07-16T04:16:38;94457.59;;;21.52;89.48
21828;BME280;11076;47.942;11.804;2023-07-16T04:21:41;94465.81;;;21.42;89.37
21828;BME280;11076;47.942;11.804;2023-07-16T04:26:43;94480.56;;;21.31;90.19
21828;BME280;11076;47.942;11.804;2023-07-16T04:31:46;94499.13;;;21.23;92.04
21828;BME280;11076;47.942;11.804;2023-07-16T04:36:48;94507.50;;;20.88;94.81
21828;BME280;11076;47.942;11.804;2023-07-16T04:41:51;94510.69;;;20.35;97.96
21828;BME280;11076;47.942;11.804;2023-07-16T04:46:53;94510.50;;;20.16;100.00
21828;BME280;11076;47.942;11.804;2023-07-16T04:51:55;94521.91;;;20.13;100.00
21828;BME280;11076;47.942;11.804;2023-07-16T04:56:58;94524.56;;;20.28;100.00
21828;BME280;11076;47.942;11.804;2023-07-16T05:02:04;94530.31;;;20.21;100.00
21828;BME280;11076;47.942;11.804;2023-07-16T05:07:07;94543.03;;;20.21;100.00
21828;BME280;11076;47.942;11.804;2023-07-16T05:12:10;94548.75;;;20.14;100.00
21828;BME280;11076;47.942;11.804;2023-07-16T05:17:13;94534.97;;;19.90;100.00
21828;BME280;11076;47.942;11.804;2023-07-16T05:22:15;94547.97;;;20.14;100.00
21828;BME280;11076;47.942;11.804;2023-07-16T05:27:18;94544.13;;;20.30;100.00
21828;BME280;11076;47.942;11.804;2023-07-16T05:32:21;94561.50;;;20.24;100.00
21828;BME280;11076;47.942;11.804;2023-07-16T05:37:24;94562.56;;;20.28;100.00
21828;BME280;11076;47.942;11.804;2023-07-16T05:42:26;94532.13;;;20.41;100.00
21828;BME280;11076;47.942;11.804;2023-07-16T05:47:29;94537.00;;;20.50;100.00
21828;BME280;11076;47.942;11.804;2023-07-16T05:52:31;94542.84;;;20.82;100.00
21828;BME280;11076;47.942;11.804;2023-07-16T05:57:35;94553.50;;;21.23;100.00
21828;BME280;11076;47.942;11.804;2023-07-16T06:02:37;94561.78;;;21.82;100.00
21828;BME280;11076;47.942;11.804;2023-07-16T06:07:40;94566.16;;;21.83;100.00
21828;BME280;11076;47.942;11.804;2023-07-16T06:12:42;94567.75;;;21.84;100.00
21828;BME280;11076;47.942;11.804;2023-07-16T06:17:45;94566.75;;;22.04;100.00
21828;BME280;11076;47.942;11.804;2023-07-16T06:22:47;94574.19;;;22.28;99.45
21828;BME280;11076;47.942;11.804;2023-07-16T06:27:49;94572.97;;;22.10;99.23
21828;BME280;11076;47.942;11.804;2023-07-16T06:32:52;94590.47;;;22.03;99.91
21828;BME280;11076;47.942;11.804;2023-07-16T06:37:54;94584.91;;;22.14;98.77
21828;BME280;11076;47.942;11.804;2023-07-16T06:42:57;94593.00;;;22.24;97.99
21828;BME280;11076;47.942;11.804;2023-07-16T06:47:59;94594.81;;;22.34;97.90
21828;BME280;11076;47.942;11.804;2023-07-16T06:53:02;94580.00;;;22.69;97.12
21828;BME280;11076;47.942;11.804;2023-07-16T06:58:04;94570.91;;;22.79;95.34
21828;BME280;11076;47.942;11.804;2023-07-16T07:03:07;94583.91;;;22.63;95.83
21828;BME280;11076;47.942;11.804;2023-07-16T07:08:09;94583.06;;;23.30;94.13
21828;BME280;11076;47.942;11.804;2023-07-16T07:13:11;94574.63;;;24.49;91.00
21828;BME280;11076;47.942;11.804;2023-07-16T07:18:14;94570.91;;;25.00;88.39
21828;BME280;11076;47.942;11.804;2023-07-16T07:23:16;94573.34;;;25.66;84.57
21828;BME280;11076;47.942;11.804;2023-07-16T07:28:19;94572.16;;;25.58;84.72
21828;BME280;11076;47.942;11.804;2023-07-16T07:33:22;94571.19;;;25.12;83.36
21828;BME280;11076;47.942;11.804;2023-07-16T07:38:24;94571.22;;;25.99;82.18
21828;BME280;11076;47.942;11.804;2023-07-16T07:43:27;94574.63;;;26.05;79.21
21828;BME280;11076;47.942;11.804;2023-07-16T07:48:29;94572.19;;;26.03;78.44
21828;BME280;11076;47.942;11.804;2023-07-16T07:53:33;94573.59;;;25.78;79.19
21828;BME280;11076;47.942;11.804;2023-07-16T07:58:35;94572.72;;;25.69;78.84
21828;BME280;11076;47.942;11.804;2023-07-16T08:03:38;94575.72;;;25.81;77.66
21828;BME280;11076;47.942;11.804;2023-07-16T08:08:41;94568.09;;;26.14;77.09
21828;BME280;11076;47.942;11.804;2023-07-16T08:13:43;94554.38;;;26.46;75.44
21828;BME280;11076;47.942;11.804;2023-07-16T08:18:46;94557.56;;;26.08;70.87
21828;BME280;11076;47.942;11.804;2023-07-16T08:23:49;94547.91;;;26.42;68.04
21828;BME280;11076;47.942;11.804;2023-07-16T08:28:51;94547.03;;;26.95;65.59
21828;BME280;11076;47.942;11.804;2023-07-16T08:33:54;94545.66;;;27.41;65.09
21828;BME280;11076;47.942;11.804;2023-07-16T08:38:57;94536.09;;;27.12;65.49
21828;BME280;11076;47.942;11.804;2023-07-16T08:43:59;94540.41;;;26.96;65.50
21828;BME280;11076;47.942;11.804;2023-07-16T08:49:03;94531.66;;;27.60;63.81
21828;BME280;11076;47.942;11.804;2023-07-16T08:54:07;94539.41;;;28.02;62.77
21828;BME280;11076;47.942;11.804;2023-07-16T08:59:10;94532.81;;;28.50;60.61
21828;BME280;11076;47.942;11.804;2023-07-16T09:04:13;94545.25;;;28.56;60.11
21828;BME280;11076;47.942;11.804;2023-07-16T09:09:24;94538.69;;;28.22;59.09
21828;BME280;11076;47.942;11.804;2023-07-16T09:14:27;94532.69;;;28.29;58.33
21828;BME280;11076;47.942;11.804;2023-07-16T09:19:32;94513.94;;;28.31;57.20
21828;BME280;11076;47.942;11.804;2023-07-16T09:24:35;94503.63;;;28.66;57.32
21828;BME280;11076;47.942;11.804;2023-07-16T09:29:38;94510.50;;;29.20;55.71
21828;BME280;11076;47.942;11.804;2023-07-16T09:34:41;94515.19;;;29.40;55.82
21828;BME280;11076;47.942;11.804;2023-07-16T09:39:46;94509.25;;;28.31;57.88
21828;BME280;11076;47.942;11.804;2023-07-16T09:44:49;94523.56;;;27.99;58.66
21828;BME280;11076;47.942;11.804;2023-07-16T09:49:55;94512.53;;;28.16;58.96
21828;BME280;11076;47.942;11.804;2023-07-16T09:55:01;94506.31;;;28.36;58.50
21828;BME280;11076;47.942;11.804;2023-07-16T10:00:09;94516.66;;;28.40;56.17
21828;BME280;11076;47.942;11.804;2023-07-16T10:05:19;94493.53;;;28.41;57.17
21828;BME280;11076;47.942;11.804;2023-07-16T10:10:26;94481.59;;;28.75;56.87
21828;BME280;11076;47.942;11.804;2023-07-16T10:15:29;94480.44;;;27.90;58.77
21828;BME280;11076;47.942;11.804;2023-07-16T10:20:36;94480.88;;;28.01;59.33
21828;BME280;11076;47.942;11.804;2023-07-16T10:26:01;94489.19;;;27.57;59.20
21828;BME280;11076;47.942;11.804;2023-07-16T10:31:26;94477.34;;;26.96;60.27
21828;BME280;11076;47.942;11.804;2023-07-16T10:36:28;94464.28;;;27.63;57.48
21828;BME280;11076;47.942;11.804;2023-07-16T10:41:31;94470.94;;;27.44;58.91
21828;BME280;11076;47.942;11.804;2023-07-16T10:46:37;94482.56;;;28.32;57.38
21828;BME280;11076;47.942;11.804;2023-07-16T10:51:39;94466.81;;;28.50;55.82
21828;BME280;11076;47.942;11.804;2023-07-16T10:56:41;94464.13;;;29.01;54.81
21828;BME280;11076;47.942;11.804;2023-07-16T11:01:45;94472.25;;;29.27;53.12
21828;BME280;11076;47.942;11.804;2023-07-16T11:06:50;94459.69;;;28.49;57.02
21828;BME280;11076;47.942;11.804;2023-07-16T11:11:52;94477.19;;;27.53;58.51
21828;BME280;11076;47.942;11.804;2023-07-16T11:17:04;94468.16;;;27.35;59.07
21828;BME280;11076;47.942;11.804;2023-07-16T11:22:08;94469.91;;;27.05;59.48
21828;BME280;11076;47.942;11.804;2023-07-16T11:27:20;94458.94;;;27.75;57.86
21828;BME280;11076;47.942;11.804;2023-07-16T11:37:35;94443.03;;;29.05;55.36
21828;BME280;11076;47.942;11.804;2023-07-16T11:42:39;94429.56;;;28.91;54.17
21828;BME280;11076;47.942;11.804;2023-07-16T11:47:41;94431.47;;;28.69;53.80
21828;BME280;11076;47.942;11.804;2023-07-16T11:52:53;94449.06;;;27.83;55.54
21828;BME280;11076;47.942;11.804;2023-07-16T11:57:56;94454.38;;;28.82;52.34
21828;BME280;11076;47.942;11.804;2023-07-16T12:02:59;94448.47;;;29.43;50.61
21828;BME280;11076;47.942;11.804;2023-07-16T12:08:01;94442.13;;;28.71;51.76
21828;BME280;11076;47.942;11.804;2023-07-16T12:13:04;94432.06;;;29.26;50.40
21828;BME280;11076;47.942;11.804;2023-07-16T12:18:06;94425.22;;;29.32;50.21
21828;BME280;11076;47.942;11.804;2023-07-16T12:23:09;94430.88;;;28.64;50.61
21828;BME280;11076;47.942;11.804;2023-07-16T12:28:11;94428.66;;;28.10;51.43
21828;BME280;11076;47.942;11.804;2023-07-16T12:33:14;94418.28;;;28.84;52.20
21828;BME280;11076;47.942;11.804;2023-07-16T12:38:16;94411.41;;;29.20;51.76
21828;BME280;11076;47.942;11.804;2023-07-16T12:43:19;94405.38;;;28.46;52.50
21828;BME280;11076;47.942;11.804;2023-07-16T12:48:21;94412.22;;;27.92;54.33
21828;BME280;11076;47.942;11.804;2023-07-16T12:53:24;94406.31;;;27.55;54.55
21828;BME280;11076;47.942;11.804;2023-07-16T12:58:27;94412.66;;;28.12;52.77
21828;BME280;11076;47.942;11.804;2023-07-16T13:03:29;94410.69;;;28.81;52.27
21828;BME280;11076;47.942;11.804;2023-07-16T13:08:32;94408.03;;;28.93;52.42
21828;BME280;11076;47.942;11.804;2023-07-16T13:13:34;94402.91;;;29.46;51.42
21828;BME280;11076;47.942;11.804;2023-07-16T13:18:37;94397.91;;;29.60;50.22
21828;BME280;11076;47.942;11.804;2023-07-16T13:23:40;94400.72;;;29.39;50.45
21828;BME280;11076;47.942;11.804;2023-07-16T13:28:42;94406.31;;;30.22;49.71
21828;BME280;11076;47.942;11.804;2023-07-16T13:33:44;94395.44;;;30.50;49.03
21828;BME280;11076;47.942;11.804;2023-07-16T13:38:47;94391.31;;;30.44;49.03
21828;BME280;11076;47.942;11.804;2023-07-16T13:43:49;94404.94;;;30.16;49.94
21828;BME280;11076;47.942;11.804;2023-07-16T13:48:52;94391.66;;;30.55;48.54
21828;BME280;11076;47.942;11.804;2023-07-16T13:53:58;94389.13;;;30.62;48.90
21828;BME280;11076;47.942;11.804;2023-07-16T13:59:00;94394.06;;;30.31;49.43
21828;BME280;11076;47.942;11.804;2023-07-16T14:04:03;94389.66;;;30.80;47.96
21828;BME280;11076;47.942;11.804;2023-07-16T14:09:05;94383.13;;;30.84;47.67
21828;BME280;11076;47.942;11.804;2023-07-16T14:14:08;94390.28;;;30.61;48.40
21828;BME280;11076;47.942;11.804;2023-07-16T14:19:10;94381.19;;;30.48;48.87
21828;BME280;11076;47.942;11.804;2023-07-16T14:24:14;94385.91;;;30.60;48.05
21828;BME280;11076;47.942;11.804;2023-07-16T14:29:16;94378.44;;;30.48;48.93
21828;BME280;11076;47.942;11.804;2023-07-16T14:34:19;94383.50;;;30.33;50.28
21828;BME280;11076;47.942;11.804;2023-07-16T14:39:21;94388.34;;;30.37;49.59
21828;BME280;11076;47.942;11.804;2023-07-16T14:44:24;94379.25;;;30.61;49.42
21828;BME280;11076;47.942;11.804;2023-07-16T14:49:26;94392.78;;;30.17;50.10
21828;BME280;11076;47.942;11.804;2023-07-16T14:54:29;94386.69;;;29.99;50.65
21828;BME280;11076;47.942;11.804;2023-07-16T14:59:31;94396.84;;;29.52;51.54
21828;BME280;11076;47.942;11.804;2023-07-16T15:04:33;94392.88;;;29.29;51.67
21828;BME280;11076;47.942;11.804;2023-07-16T15:09:36;94390.28;;;29.03;51.44
21828;BME280;11076;47.942;11.804;2023-07-16T15:14:42;94388.56;;;28.98;52.05
21828;BME280;11076;47.942;11.804;2023-07-16T15:19:45;94382.66;;;28.87;52.33
21828;BME280;11076;47.942;11.804;2023-07-16T15:24:47;94378.94;;;29.04;52.50
21828;BME280;11076;47.942;11.804;2023-07-16T15:29:50;94384.13;;;28.64;53.37
21828;BME280;11076;47.942;11.804;2023-07-16T15:34:52;94392.44;;;28.46;53.74
21828;BME280;11076;47.942;11.804;2023-07-16T15:39:55;94396.63;;;27.49;55.53
21828;BME280;11076;47.942;11.804;2023-07-16T15:44:57;94389.22;;;27.41;56.59
21828;BME280;11076;47.942;11.804;2023-07-16T15:50:00;94393.75;;;27.02;57.76
21828;BME280;11076;47.942;11.804;2023-07-16T15:55:02;94391.22;;;26.39;59.33
21828;BME280;11076;47.942;11.804;2023-07-16T16:00:06;94404.41;;;26.37;60.51
21828;BME280;11076;47.942;11.804;2023-07-16T16:05:16;94405.41;;;26.42;61.07
21828;BME280;11076;47.942;11.804;2023-07-16T16:10:20;94401.75;;;26.64;60.68
21828;BME280;11076;47.942;11.804;2023-07-16T16:15:22;94404.88;;;26.88;59.62
21828;BME280;11076;47.942;11.804;2023-07-16T16:20:25;94396.28;;;26.64;61.08
21828;BME280;11076;47.942;11.804;2023-07-16T16:25:30;94395.41;;;26.37;62.43
21828;BME280;11076;47.942;11.804;2023-07-16T16:30:35;94395.88;;;26.30;63.07
21828;BME280;11076;47.942;11.804;2023-07-16T16:35:41;94406.28;;;26.11;64.38
21828;BME280;11076;47.942;11.804;2023-07-16T16:40:44;94400.81;;;26.11;64.32
21828;BME280;11076;47.942;11.804;2023-07-16T16:45:46;94393.28;;;26.25;64.92
21828;BME280;11076;47.942;11.804;2023-07-16T16:50:54;94399.97;;;26.50;63.79
21828;BME280;11076;47.942;11.804;2023-07-16T16:55:58;94405.78;;;26.09;64.81
21828;BME280;11076;47.942;11.804;2023-07-16T17:01:00;94417.31;;;25.66;66.13
21828;BME280;11076;47.942;11.804;2023-07-16T17:06:03;94411.44;;;25.81;65.76
21828;BME280;11076;47.942;11.804;2023-07-16T17:11:05;94419.19;;;25.88;65.25
21828;BME280;11076;47.942;11.804;2023-07-16T17:16:07;94419.25;;;25.65;66.28
21828;BME280;11076;47.942;11.804;2023-07-16T17:21:11;94401.03;;;25.60;66.63
21828;BME280;11076;47.942;11.804;2023-07-16T17:26:13;94398.84;;;25.80;65.93
21828;BME280;11076;47.942;11.804;2023-07-16T17:31:15;94408.47;;;25.69;65.88
21828;BME280;11076;47.942;11.804;2023-07-16T17:36:18;94398.63;;;25.68;65.92
21828;BME280;11076;47.942;11.804;2023-07-16T17:41:20;94411.69;;;25.39;67.07
21828;BME280;11076;47.942;11.804;2023-07-16T17:46:23;94407.00;;;25.17;67.52
21828;BME280;11076;47.942;11.804;2023-07-16T17:51:25;94415.81;;;25.14;67.93
21828;BME280;11076;47.942;11.804;2023-07-16T17:56:28;94412.56;;;25.12;68.08
21828;BME280;11076;47.942;11.804;2023-07-16T18:01:30;94422.75;;;24.98;68.84
21828;BME280;11076;47.942;11.804;2023-07-16T18:06:34;94421.75;;;24.94;69.05
21828;BME280;11076;47.942;11.804;2023-07-16T18:11:36;94405.47;;;24.89;69.36
21828;BME280;11076;47.942;11.804;2023-07-16T18:16:39;94402.97;;;24.78;69.78
21828;BME280;11076;47.942;11.804;2023-07-16T18:21:42;94405.38;;;24.80;70.20
21828;BME280;11076;47.942;11.804;2023-07-16T18:26:44;94416.94;;;24.77;70.54
21828;BME280;11076;47.942;11.804;2023-07-16T18:31:47;94413.09;;;24.78;70.54
21828;BME280;11076;47.942;11.804;2023-07-16T18:36:50;94417.34;;;24.70;71.08
21828;BME280;11076;47.942;11.804;2023-07-16T18:41:52;94426.88;;;24.59;71.86
21828;BME280;11076;47.942;11.804;2023-07-16T18:46:55;94439.44;;;24.46;72.56
21828;BME280;11076;47.942;11.804;2023-07-16T18:51:57;94437.22;;;24.34;73.12
21828;BME280;11076;47.942;11.804;2023-07-16T18:56:59;94428.09;;;24.39;73.80
21828;BME280;11076;47.942;11.804;2023-07-16T19:02:03;94448.25;;;24.15;75.03
21828;BME280;11076;47.942;11.804;2023-07-16T19:07:06;94459.69;;;24.04;75.81
21828;BME280;11076;47.942;11.804;2023-07-16T19:12:08;94470.38;;;24.00;76.36
21828;BME280;11076;47.942;11.804;2023-07-16T19:17:14;94431.44;;;23.61;79.18
21828;BME280;11076;47.942;11.804;2023-07-16T19:22:17;94465.38;;;23.22;80.57
21828;BME280;11076;47.942;11.804;2023-07-16T19:27:19;94478.41;;;23.26;81.14
21828;BME280;11076;47.942;11.804;2023-07-16T19:32:21;94477.75;;;23.34;81.29
21828;BME280;11076;47.942;11.804;2023-07-16T19:37:24;94485.94;;;23.34;82.04
21828;BME280;11076;47.942;11.804;2023-07-16T19:42:27;94489.47;;;23.15;82.97
21828;BME280;11076;47.942;11.804;2023-07-16T19:47:30;94489.13;;;23.03;83.98
21828;BME280;11076;47.942;11.804;2023-07-16T19:52:33;94486.16;;;23.18;84.40
21828;BME280;11076;47.942;11.804;2023-07-16T19:57:35;94492.66;;;23.03;85.98
21828;BME280;11076;47.942;11.804;2023-07-16T20:02:39;94484.97;;;22.87;87.41
21828;BME280;11076;47.942;11.804;2023-07-16T20:07:42;94488.16;;;22.51;89.34
21828;BME280;11076;47.942;11.804;2023-07-16T20:12:45;94488.81;;;22.42;90.95
21828;BME280;11076;47.942;11.804;2023-07-16T20:17:48;94506.84;;;22.38;91.34
21828;BME280;11076;47.942;11.804;2023-07-16T20:22:50;94513.47;;;22.51;91.22
21828;BME280;11076;47.942;11.804;2023-07-16T20:27:54;94513.34;;;22.61;91.23
21828;BME280;11076;47.942;11.804;2023-07-16T20:32:57;94498.41;;;22.59;91.44
21828;BME280;11076;47.942;11.804;2023-07-16T20:38:02;94509.22;;;22.64;91.56
21828;BME280;11076;47.942;11.804;2023-07-16T20:43:05;94507.75;;;22.53;92.48
21828;BME280;11076;47.942;11.804;2023-07-16T20:48:08;94502.13;;;22.68;91.49
21828;BME280;11076;47.942;11.804;2023-07-16T20:53:10;94510.91;;;22.60;91.57
21828;BME280;11076;47.942;11.804;2023-07-16T20:58:13;94531.22;;;22.49;92.22
21828;BME280;11076;47.942;11.804;2023-07-16T21:03:15;94533.75;;;22.64;91.81
21828;BME280;11076;47.942;11.804;2023-07-16T21:08:18;94523.56;;;22.51;92.61
21828;BME280;11076;47.942;11.804;2023-07-16T21:13:20;94540.72;;;22.27;95.78
21828;BME280;11076;47.942;11.804;2023-07-16T21:18:23;94528.72;;;21.99;99.97
21828;BME280;11076;47.942;11.804;2023-07-16T21:23:25;94538.25;;;21.96;100.00
21828;BME280;11076;47.942;11.804;2023-07-16T21:28:27;94540.97;;;21.96;100.00
21828;BME280;11076;47.942;11.804;2023-07-16T21:33:30;94541.56;;;21.93;100.00
21828;BME280;11076;47.942;11.804;2023-07-16T21:38:32;94521.75;;;21.88;100.00
21828;BME280;11076;47.942;11.804;2023-07-16T21:43:35;94514.31;;;21.64;100.00
21828;BME280;11076;47.942;11.804;2023-07-16T21:48:37;94522.31;;;21.55;100.00
21828;BME280;11076;47.942;11.804;2023-07-16T21:53:39;94527.28;;;21.43;100.00
21828;BME280;11076;47.942;11.804;2023-07-16T21:58:42;94529.72;;;21.44;100.00
21828;BME280;11076;47.942;11.804;2023-07-16T22:03:44;94534.38;;;21.34;100.00
21828;BME280;11076;47.942;11.804;2023-07-16T22:08:47;94531.84;;;21.08;100.00
21828;BME280;11076;47.942;11.804;2023-07-16T22:13:49;94527.00;;;20.95;100.00
21828;BME280;11076;47.942;11.804;2023-07-16T22:18:52;94531.53;;;20.55;100.00
21828;BME280;11076;47.942;11.804;2023-07-16T22:23:55;94520.75;;;20.34;100.00
21828;BME280;11076;47.942;11.804;2023-07-16T22:28:58;94527.28;;;20.23;100.00
21828;BME280;11076;47.942;11.804;2023-07-16T22:34:01;94524.06;;;20.16;100.00
21828;BME280;11076;47.942;11.804;2023-07-16T22:39:03;94529.25;;;19.97;100.00
21828;BME280;11076;47.942;11.804;2023-07-16T22:44:06;94520.59;;;19.84;100.00
21828;BME280;11076;47.942;11.804;2023-07-16T22:49:09;94511.38;;;19.60;100.00
21828;BME280;11076;47.942;11.804;2023-07-16T22:54:11;94515.97;;;19.64;100.00
21828;BME280;11076;47.942;11.804;2023-07-16T22:59:14;94529.28;;;19.66;100.00
21828;BME280;11076;47.942;11.804;2023-07-16T23:04:16;94526.56;;;19.81;100.00
21828;BME280;11076;47.942;11.804;2023-07-16T23:09:18;94528.19;;;19.82;100.00
21828;BME280;11076;47.942;11.804;2023-07-16T23:14:22;94520.34;;;19.50;100.00
21828;BME280;11076;47.942;11.804;2023-07-16T23:19:24;94538.22;;;19.31;100.00
21828;BME280;11076;47.942;11.804;2023-07-16T23:24:26;94561.78;;;19.25;100.00
21828;BME280;11076;47.942;11.804;2023-07-16T23:29:29;94564.78;;;19.54;100.00
21828;BME280;11076;47.942;11.804;2023-07-16T23:34:31;94561.53;;;19.57;100.00
21828;BME280;11076;47.942;11.804;2023-07-16T23:39:34;94554.75;;;19.44;100.00
21828;BME280;11076;47.942;11.804;2023-07-16T23:44:36;94559.34;;;19.34;100.00
21828;BME280;11076;47.942;11.804;2023-07-16T23:49:38;94570.47;;;19.37;100.00
21828;BME280;11076;47.942;11.804;2023-07-16T23:54:41;94574.00;;;19.63;100.00
21828;BME280;11076;47.942;11.804;2023-07-16T23:59:43;94553.16;;;19.84;100.00
